Time;durP1;ratioP1;P1;durP2;ratioP2;P2;SDS_P1;SDS_P2;PMS_P1;PMS_P2;Temp;Humidity;BMP_temperature;BMP_pressure;BME280_temperature;BME280_humidity;BME280_pressure;Samples;Min_cycle;Max_cycle;Signal;HPM_P1;HPM_P2
2021/04/01 00:00:14;;;;;;;;;;;;;;;9.51;76.96;96135.50;1032601;28;19913;-70
2021/04/01 00:00:45;;;;;;;;;;;;;;;9.47;77.11;96140.44;1031908;28;19909;-70
2021/04/01 00:01:16;;;;;;;;;;;;;;;9.45;77.12;96134.66;1031955;28;20431;-70
2021/04/01 00:01:46;;;;;;;;;;;;;;;9.45;76.86;96143.31;1032306;28;19976;-70
2021/04/01 00:02:17;;;;;;;;;;;;;;;9.44;77.12;96136.50;1035933;28;19917;-71
2021/04/01 00:02:48;;;;;;;;;;;;;;;9.41;77.32;96131.75;1031575;28;19964;-70
2021/04/01 00:03:18;;;;;;;;;;;;;;;9.25;77.24;96110.88;1035667;28;19971;-70
2021/04/01 00:03:48;;;;;;;;;;;;;;;9.40;77.35;96137.25;1031623;28;20513;-70
2021/04/01 00:04:19;;;;;;;;;;;;;;;9.39;77.30;96135.66;1031605;28;19910;-70
2021/04/01 00:04:49;;;;;;;;;;;;;;;9.39;77.29;96130.41;1035789;28;19910;-70
2021/04/01 00:05:20;;;;;;;;;;;;;;;9.41;77.17;96136.19;1041362;28;19905;-70
2021/04/01 00:05:50;;;;;;;;;;;;;;;9.40;77.40;96134.63;1035449;28;19918;-70
2021/04/01 00:06:20;;;;;;;;;;;;;;;9.37;77.26;96132.47;1035922;28;19917;-70
2021/04/01 00:06:50;;;;;;;;;;;;;;;9.34;77.65;96130.34;1038762;28;20286;-70
2021/04/01 00:07:21;;;;;;;;;;;;;;;9.31;77.75;96130.84;1027643;28;20617;-70
2021/04/01 00:07:51;;;;;;;;;;;;;;;9.30;77.71;96129.25;1031972;28;19914;-70
2021/04/01 00:08:21;;;;;;;;;;;;;;;9.30;77.67;96126.66;1030987;28;19984;-70
2021/04/01 00:08:52;;;;;;;;;;;;;;;9.30;77.88;96129.25;1023077;28;19917;-70
2021/04/01 00:09:22;;;;;;;;;;;;;;;9.26;77.93;96128.16;1023366;28;20411;-70
2021/04/01 00:09:52;;;;;;;;;;;;;;;9.24;78.11;96132.84;1023386;28;19914;-70
2021/04/01 00:10:31;;;;;;;;;;;;;;;9.21;78.08;96128.88;1021173;28;19958;-70
2021/04/01 00:11:01;;;;;;;;;;;;;;;9.27;78.06;96129.75;1032681;28;20426;-70
2021/04/01 00:11:32;;;;;;;;;;;;;;;9.24;77.95;96127.63;1036836;28;19914;-70
2021/04/01 00:12:02;;;;;;;;;;;;;;;9.23;78.04;96131.28;1039090;28;20513;-70
2021/04/01 00:12:33;;;;;;;;;;;;;;;9.19;78.31;96123.91;1039815;28;19920;-70
2021/04/01 00:13:03;;;;;;;;;;;;;;;9.18;78.42;96127.53;1031867;28;19928;-69
2021/04/01 00:13:33;;;;;;;;;;;;;;;9.15;78.34;96125.44;1029313;28;19972;-70
2021/04/01 00:14:05;;;;;;;;;;;;;;;9.13;78.55;96121.47;1031486;28;19948;-70
2021/04/01 00:14:35;;;;;;;;;;;;;;;9.16;78.55;96132.25;1036092;28;19973;-70
2021/04/01 00:15:06;;;;;;;;;;;;;;;9.15;78.56;96128.06;1035645;28;19948;-70
2021/04/01 00:15:37;;;;;;;;;;;;;;;9.13;78.59;96124.88;1042033;28;20003;-70
2021/04/01 00:16:07;;;;;;;;;;;;;;;9.14;78.75;96121.22;1043692;28;19908;-70
2021/04/01 00:16:38;;;;;;;;;;;;;;;9.21;78.61;96124.44;1043867;28;20436;-70
2021/04/01 00:17:08;;;;;;;;;;;;;;;9.20;78.52;96130.72;1039895;28;19920;-70
2021/04/01 00:17:38;;;;;;;;;;;;;;;9.24;78.42;96122.38;1039584;28;19932;-70
2021/04/01 00:18:09;;;;;;;;;;;;;;;9.29;78.32;96119.81;1039517;28;20402;-70
2021/04/01 00:18:40;;;;;;;;;;;;;;;9.26;78.15;96126.34;1027856;28;19921;-70
2021/04/01 00:19:10;;;;;;;;;;;;;;;9.27;78.13;96124.50;1031506;28;19925;-70
2021/04/01 00:19:40;;;;;;;;;;;;;;;9.21;78.08;96124.44;1031470;28;20021;-70
2021/04/01 00:20:12;;;;;;;;;;;;;;;9.19;78.40;96120.50;1035505;28;19940;-70
2021/04/01 00:20:42;;;;;;;;;;;;;;;9.18;78.65;96127.53;1031387;28;20864;-70
2021/04/01 00:21:13;;;;;;;;;;;;;;;9.18;78.41;96117.06;1031868;28;19918;-70
2021/04/01 00:21:43;;;;;;;;;;;;;;;9.19;78.64;96123.13;1031538;28;19961;-70
2021/04/01 00:22:13;;;;;;;;;;;;;;;9.16;78.66;96123.59;1030384;28;19924;-70
2021/04/01 00:22:43;;;;;;;;;;;;;;;9.12;78.62;96128.53;1031942;28;19917;-70
2021/04/01 00:23:14;;;;;;;;;;;;;;;9.09;78.99;96118.56;1027535;28;19914;-70
2021/04/01 00:23:44;;;;;;;;;;;;;;;9.10;79.05;96119.34;1035490;28;19968;-70
2021/04/01 00:24:14;;;;;;;;;;;;;;;9.06;78.99;96124.28;1038896;28;19917;-70
2021/04/01 00:24:45;;;;;;;;;;;;;;;9.06;79.14;96124.28;1039800;28;20543;-70
2021/04/01 00:25:15;;;;;;;;;;;;;;;9.06;79.02;96124.28;1039943;28;19917;-70
2021/04/01 00:25:46;;;;;;;;;;;;;;;9.03;79.28;96122.13;1035004;28;19925;-70
2021/04/01 00:26:16;;;;;;;;;;;;;;;9.03;79.17;96122.13;1031504;28;20435;-70
2021/04/01 00:26:46;;;;;;;;;;;;;;;9.01;79.30;96120.78;1035908;28;19925;-70
2021/04/01 00:27:17;;;;;;;;;;;;;;;9.02;79.29;96117.94;1035888;28;19914;-69
2021/04/01 00:27:47;;;;;;;;;;;;;;;8.99;79.56;96113.19;1039543;28;19917;-70
2021/04/01 00:28:17;;;;;;;;;;;;;;;8.94;79.48;96118.34;1039241;28;19917;-70
2021/04/01 00:28:48;;;;;;;;;;;;;;;8.94;79.73;96120.97;1035344;28;19920;-69
2021/04/01 00:29:18;;;;;;;;;;;;;;;8.92;79.70;96123.00;1034785;28;19965;-69
2021/04/01 00:29:49;;;;;;;;;;;;;;;8.94;79.81;96110.50;1033838;28;19929;-70
2021/04/01 00:30:22;;;;;;;;;;;;;;;8.92;80.04;96117.78;1035437;28;19983;-70
2021/04/01 00:30:52;;;;;;;;;;;;;;;8.95;79.62;96109.44;1038820;28;19917;-70
2021/04/01 00:31:22;;;;;;;;;;;;;;;8.93;79.73;96116.78;1039471;28;19908;-70
2021/04/01 00:31:53;;;;;;;;;;;;;;;8.93;79.85;96117.56;1035360;28;19924;-70
2021/04/01 00:32:23;;;;;;;;;;;;;;;8.91;79.90;96114.38;1035743;28;19924;-70
2021/04/01 00:32:54;;;;;;;;;;;;;;;8.89;80.04;96113.06;1031443;28;19918;-70
2021/04/01 00:33:24;;;;;;;;;;;;;;;8.87;80.28;96115.13;1028296;28;19969;-70
2021/04/01 00:33:54;;;;;;;;;;;;;;;8.88;80.21;96116.69;1023228;29;20000;-70
2021/04/01 00:34:24;;;;;;;;;;;;;;;8.90;79.96;96114.63;1023356;29;20364;-70
2021/04/01 00:34:55;;;;;;;;;;;;;;;8.93;79.97;96116.78;1027814;28;19914;-69
2021/04/01 00:35:25;;;;;;;;;;;;;;;8.91;80.07;96113.59;1030871;28;19913;-69
2021/04/01 00:35:55;;;;;;;;;;;;;;;8.93;79.83;96119.38;1035469;28;20465;-70
2021/04/01 00:36:26;;;;;;;;;;;;;;;8.92;80.06;96112.56;1035687;28;20248;-70
2021/04/01 00:36:56;;;;;;;;;;;;;;;8.90;80.12;96119.88;1027314;28;20822;-68
2021/04/01 00:37:26;;;;;;;;;;;;;;;8.90;80.03;96112.03;1031207;28;19941;-70
2021/04/01 00:37:57;;;;;;;;;;;;;;;8.90;80.16;96117.25;1035768;28;19918;-70
2021/04/01 00:38:27;;;;;;;;;;;;;;;8.92;79.98;96107.31;1030376;28;19924;-70
2021/04/01 00:38:57;;;;;;;;;;;;;;;8.91;80.07;96113.59;1035827;28;20036;-70
2021/04/01 00:39:28;;;;;;;;;;;;;;;8.93;79.90;96112.31;1031569;28;20335;-69
2021/04/01 00:39:58;;;;;;;;;;;;;;;8.96;80.02;96108.44;1031353;28;20475;-70
2021/04/01 00:40:28;;;;;;;;;;;;;;;8.96;80.09;96111.06;1035723;28;19923;-69
2021/04/01 00:40:59;;;;;;;;;;;;;;;8.94;79.69;96103.44;1035552;28;19909;-70
2021/04/01 00:41:29;;;;;;;;;;;;;;;8.93;79.92;96108.91;1034961;28;19918;-70
2021/04/01 00:41:59;;;;;;;;;;;;;;;8.95;79.64;96106.84;1031876;28;19913;-70
2021/04/01 00:42:30;;;;;;;;;;;;;;;8.91;80.00;96108.34;1031695;28;20399;-70
2021/04/01 00:43:00;;;;;;;;;;;;;;;8.90;80.02;96110.19;1036039;28;19952;-70
2021/04/01 00:43:30;;;;;;;;;;;;;;;8.91;80.08;96110.97;1031262;28;19924;-70
2021/04/01 00:44:04;;;;;;;;;;;;;;;8.89;80.02;96108.63;1035580;28;19920;-70
2021/04/01 00:44:34;;;;;;;;;;;;;;;8.91;80.08;96106.53;1035603;28;19917;-70
2021/04/01 00:45:06;;;;;;;;;;;;;;;8.91;80.09;96108.34;1035879;28;19918;-70
2021/04/01 00:45:36;;;;;;;;;;;;;;;8.91;80.06;96106.53;1035341;28;20028;-70
2021/04/01 00:46:06;;;;;;;;;;;;;;;8.87;80.16;96107.25;1031732;28;19916;-70
2021/04/01 00:46:37;;;;;;;;;;;;;;;8.86;80.25;96103.88;1026689;28;20307;-69
2021/04/01 00:47:07;;;;;;;;;;;;;;;8.81;80.35;96103.00;1027906;28;20372;-70
2021/04/01 00:47:41;;;;;;;;;;;;;;;8.81;80.48;96106.41;1029985;28;20367;-69
2021/04/01 00:48:11;;;;;;;;;;;;;;;8.86;80.55;96103.06;1031738;28;20025;-70
2021/04/01 00:48:41;;;;;;;;;;;;;;;8.82;80.38;96100.16;1034914;28;20077;-70
2021/04/01 00:49:12;;;;;;;;;;;;;;;8.80;80.39;96101.41;1031971;28;20012;-70
2021/04/01 00:49:42;;;;;;;;;;;;;;;8.78;80.70;96098.25;1031287;28;19917;-70
2021/04/01 00:50:22;;;;;;;;;;;;;;;8.73;81.11;96102.38;1023028;28;19942;-70
2021/04/01 00:50:53;;;;;;;;;;;;;;;8.73;80.85;96097.16;1028686;28;20323;-69
2021/04/01 00:51:23;;;;;;;;;;;;;;;8.76;80.63;96095.09;1031772;28;19949;-69
2021/04/01 00:51:53;;;;;;;;;;;;;;;8.78;80.67;96096.41;1032605;28;19914;-70
2021/04/01 00:52:24;;;;;;;;;;;;;;;8.76;80.74;96098.50;1035309;28;19918;-69
2021/04/01 00:52:54;;;;;;;;;;;;;;;8.75;80.86;96094.28;1035733;28;19913;-70
2021/04/01 00:53:24;;;;;;;;;;;;;;;8.74;80.80;96095.31;1043395;28;20511;-70
2021/04/01 00:53:55;;;;;;;;;;;;;;;8.73;80.82;96097.16;1039905;28;19923;-70
2021/04/01 00:54:25;;;;;;;;;;;;;;;8.71;80.67;96091.34;1039419;28;19943;-70
2021/04/01 00:54:56;;;;;;;;;;;;;;;8.78;80.88;96095.63;1031229;28;19925;-70
2021/04/01 00:55:26;;;;;;;;;;;;;;;8.82;80.38;96099.34;1031096;28;19963;-70
2021/04/01 00:55:57;;;;;;;;;;;;;;;8.84;80.58;96099.91;1035516;28;19909;-70
2021/04/01 00:56:27;;;;;;;;;;;;;;;8.84;80.41;96099.91;1035367;28;19920;-70
2021/04/01 00:56:57;;;;;;;;;;;;;;;8.83;80.33;96098.31;1035364;28;19901;-70
2021/04/01 00:57:28;;;;;;;;;;;;;;;8.78;80.43;96099.03;1031238;28;19921;-70
2021/04/01 00:58:00;;;;;;;;;;;;;;;8.74;80.66;96100.56;1023408;29;19949;-70
2021/04/01 00:58:30;;;;;;;;;;;;;;;8.73;80.73;96102.38;1026598;28;19941;-70
2021/04/01 00:59:00;;;;;;;;;;;;;;;8.76;80.75;96102.94;1031541;28;19914;-70
2021/04/01 00:59:31;;;;;;;;;;;;;;;8.76;80.67;96092.47;1035500;28;19913;-70
2021/04/01 01:00:01;;;;;;;;;;;;;;;8.75;80.67;96094.28;1031343;28;20409;-70
2021/04/01 01:00:33;;;;;;;;;;;;;;;8.75;80.73;96091.66;1034495;28;20020;-70
2021/04/01 01:01:51;;;;;;;;;;;;;;;8.74;80.74;96097.94;1027600;28;19918;-70
2021/04/01 01:02:04;;;;;;;;;;;;;;;8.72;80.66;96100.03;1024133;28;20380;-71
2021/04/01 01:02:35;;;;;;;;;;;;;;;8.74;80.78;96096.09;1040040;28;19913;-70
2021/04/01 01:03:05;;;;;;;;;;;;;;;8.74;80.63;96090.88;1039498;28;19913;-70
2021/04/01 01:03:35;;;;;;;;;;;;;;;8.72;80.79;96087.72;1031772;28;20450;-69
2021/04/01 01:04:08;;;;;;;;;;;;;;;8.70;80.93;96095.00;1027277;28;19972;-70
2021/04/01 01:04:38;;;;;;;;;;;;;;;8.74;81.02;96101.34;1027402;28;20577;-70
2021/04/01 01:05:09;;;;;;;;;;;;;;;8.74;80.71;96093.50;1028095;28;19914;-69
2021/04/01 01:05:39;;;;;;;;;;;;;;;8.76;80.67;96092.47;1034500;28;19918;-70
2021/04/01 01:06:09;;;;;;;;;;;;;;;8.74;80.63;96095.31;1035406;28;19940;-70
2021/04/01 01:06:40;;;;;;;;;;;;;;;8.69;81.42;96093.44;1031720;28;20004;-70
2021/04/01 01:07:10;;;;;;;;;;;;;;;8.69;81.07;96093.44;1031137;28;19936;-70
2021/04/01 01:07:40;;;;;;;;;;;;;;;8.76;80.63;96097.72;1031439;28;19921;-70
2021/04/01 01:08:11;;;;;;;;;;;;;;;8.73;80.75;96094.53;1035401;28;19909;-70
2021/04/01 01:08:41;;;;;;;;;;;;;;;8.69;80.79;96096.06;1034728;28;20428;-69
2021/04/01 01:09:11;;;;;;;;;;;;;;;8.67;80.95;96094.72;1035626;28;19989;-70
2021/04/01 01:09:42;;;;;;;;;;;;;;;8.67;80.95;96095.50;1031228;28;19905;-70
2021/04/01 01:10:16;;;;;;;;;;;;;;;8.63;81.13;96089.16;1031223;28;19914;-70
2021/04/01 01:10:46;;;;;;;;;;;;;;;8.64;81.27;96095.19;1030994;28;19925;-70
2021/04/01 01:11:17;;;;;;;;;;;;;;;8.63;81.07;96093.59;1027910;28;20304;-70
2021/04/01 01:11:47;;;;;;;;;;;;;;;8.59;81.28;96095.13;1027578;28;20007;-70
2021/04/01 01:12:18;;;;;;;;;;;;;;;8.57;81.58;96092.75;1022945;29;19949;-70
2021/04/01 01:12:48;;;;;;;;;;;;;;;8.55;81.55;96097.44;1027379;28;19914;-70
2021/04/01 01:13:18;;;;;;;;;;;;;;;8.57;81.92;96091.94;1026092;28;19914;-69
2021/04/01 01:13:49;;;;;;;;;;;;;;;8.56;81.51;96096.41;1034920;28;19909;-69
2021/04/01 01:14:19;;;;;;;;;;;;;;;8.63;81.38;96099.63;1035332;28;19912;-70
2021/04/01 01:14:49;;;;;;;;;;;;;;;8.59;81.49;96101.16;1039748;28;19925;-70
2021/04/01 01:15:20;;;;;;;;;;;;;;;8.60;81.67;96096.72;1039409;28;20363;-70
2021/04/01 01:15:51;;;;;;;;;;;;;;;8.56;81.87;96101.63;1035189;28;20377;-70
2021/04/01 01:16:21;;;;;;;;;;;;;;;8.53;81.58;96099.50;1031168;28;19914;-69
2021/04/01 01:16:51;;;;;;;;;;;;;;;8.52;81.99;96100.53;1031068;28;19909;-70
2021/04/01 01:17:22;;;;;;;;;;;;;;;8.51;82.12;96093.69;1031565;28;19921;-69
2021/04/01 01:17:52;;;;;;;;;;;;;;;8.49;81.78;96099.19;1031155;28;19910;-70
2021/04/01 01:18:25;;;;;;;;;;;;;;;8.49;82.21;96104.41;1038725;28;19947;-70
2021/04/01 01:18:55;;;;;;;;;;;;;;;8.48;82.12;96099.41;1043749;28;19915;-70
2021/04/01 01:19:26;;;;;;;;;;;;;;;8.48;81.83;96099.41;1035225;28;19909;-70
2021/04/01 01:19:56;;;;;;;;;;;;;;;8.50;82.31;96099.97;1031072;28;19902;-70
2021/04/01 01:20:27;;;;;;;;;;;;;;;8.54;81.67;96095.03;1027046;28;19902;-70
2021/04/01 01:20:57;;;;;;;;;;;;;;;8.53;81.79;96099.50;1027205;28;20402;-70
2021/04/01 01:21:27;;;;;;;;;;;;;;;8.54;81.85;96102.88;1035779;28;19913;-70
2021/04/01 01:21:58;;;;;;;;;;;;;;;8.56;81.64;96095.59;1034996;28;19973;-70
2021/04/01 01:22:28;;;;;;;;;;;;;;;8.53;81.60;96098.69;1031278;28;19917;-70
2021/04/01 01:22:59;;;;;;;;;;;;;;;8.48;81.88;96102.00;1027457;28;19910;-69
2021/04/01 01:23:29;;;;;;;;;;;;;;;8.46;81.89;96101.47;1022783;28;20352;-70
2021/04/01 01:23:59;;;;;;;;;;;;;;;8.41;81.95;96098.78;1035110;28;19921;-70
2021/04/01 01:24:30;;;;;;;;;;;;;;;8.35;82.36;96092.69;1035411;28;19909;-70
2021/04/01 01:25:00;;;;;;;;;;;;;;;8.31;82.70;96096.00;1027283;28;19936;-70
2021/04/01 01:25:31;;;;;;;;;;;;;;;8.32;82.76;96089.75;1034848;28;19936;-70
2021/04/01 01:26:01;;;;;;;;;;;;;;;8.32;82.90;96095.75;1027135;28;19925;-70
2021/04/01 01:26:31;;;;;;;;;;;;;;;8.31;82.74;96088.16;1027141;28;19917;-70
2021/04/01 01:27:02;;;;;;;;;;;;;;;8.32;82.81;96087.13;1031457;28;19908;-70
2021/04/01 01:27:32;;;;;;;;;;;;;;;8.30;82.80;96094.41;1033877;28;19952;-70
2021/04/01 01:28:03;;;;;;;;;;;;;;;8.30;82.88;96095.19;1027356;28;20501;-70
2021/04/01 01:28:33;;;;;;;;;;;;;;;8.29;82.72;96088.41;1026219;28;20040;-69
2021/04/01 01:29:04;;;;;;;;;;;;;;;8.25;83.10;96088.09;1031354;28;19916;-70
2021/04/01 01:29:34;;;;;;;;;;;;;;;8.27;83.12;96086.00;1031438;28;19910;-70
2021/04/01 01:30:05;;;;;;;;;;;;;;;8.26;83.10;96081.81;1027330;28;19910;-70
2021/04/01 01:30:36;;;;;;;;;;;;;;;8.29;83.04;96088.41;1030764;28;20000;-70
2021/04/01 01:31:06;;;;;;;;;;;;;;;8.33;82.89;96088.72;1035533;28;19917;-70
2021/04/01 01:31:41;;;;;;;;;;;;;;;8.38;82.68;96091.41;1035581;28;20337;-70
2021/04/01 01:32:11;;;;;;;;;;;;;;;8.32;82.59;96093.16;1035601;28;19913;-70
2021/04/01 01:32:43;;;;;;;;;;;;;;;8.25;82.95;96090.69;1032667;28;19956;-70
2021/04/01 01:33:20;;;;;;;;;;;;;;;8.25;83.13;96093.31;1039380;28;19936;-70
2021/04/01 01:33:51;;;;;;;;;;;;;;;8.25;83.17;96088.09;1037373;28;19913;-69
2021/04/01 01:34:21;;;;;;;;;;;;;;;8.23;82.98;96086.72;1039333;28;20338;-70
2021/04/01 01:34:51;;;;;;;;;;;;;;;8.21;83.21;96094.00;1045224;28;19912;-70
2021/04/01 01:35:25;;;;;;;;;;;;;;;8.20;83.18;96090.59;1039347;28;19913;-69
2021/04/01 01:35:56;;;;;;;;;;;;;;;8.16;83.59;96088.72;1031143;28;19910;-70
2021/04/01 01:36:26;;;;;;;;;;;;;;;8.15;83.88;96087.94;1027558;28;19969;-70
2021/04/01 01:36:56;;;;;;;;;;;;;;;8.19;83.72;96083.81;1027524;28;19939;-70
2021/04/01 01:37:27;;;;;;;;;;;;;;;8.15;83.68;96082.69;1030986;28;20457;-70
2021/04/01 01:38:01;;;;;;;;;;;;;;;8.12;83.79;96083.19;1034246;28;19913;-69
2021/04/01 01:38:31;;;;;;;;;;;;;;;8.17;83.80;96083.25;1030443;28;19969;-70
2021/04/01 01:39:01;;;;;;;;;;;;;;;8.17;83.92;96092.91;1031210;28;19913;-69
2021/04/01 01:39:32;;;;;;;;;;;;;;;8.19;83.92;96086.41;1027565;28;20519;-70
2021/04/01 01:40:02;;;;;;;;;;;;;;;8.18;83.50;96082.22;1031260;28;20394;-70
2021/04/01 01:40:33;;;;;;;;;;;;;;;8.18;83.59;96086.63;1039617;28;19950;-70
2021/04/01 01:41:03;;;;;;;;;;;;;;;8.23;83.30;96087.53;1035097;28;19913;-70
2021/04/01 01:41:33;;;;;;;;;;;;;;;8.19;83.27;96081.19;1034930;28;20445;-70
2021/04/01 01:42:04;;;;;;;;;;;;;;;8.16;83.52;96084.28;1035450;28;19914;-70
2021/04/01 01:42:34;;;;;;;;;;;;;;;8.13;83.59;96084.75;1027177;28;19997;-70
2021/04/01 01:43:05;;;;;;;;;;;;;;;8.13;83.82;96084.75;1032896;28;19921;-69
2021/04/01 01:43:36;;;;;;;;;;;;;;;8.11;83.74;96084.19;1031415;28;19910;-69
2021/04/01 01:44:06;;;;;;;;;;;;;;;8.08;83.76;96079.47;1039339;28;19913;-70
2021/04/01 01:44:37;;;;;;;;;;;;;;;8.10;83.83;96084.44;1030516;28;19956;-70
2021/04/01 01:45:08;;;;;;;;;;;;;;;8.12;83.72;96082.38;1035080;28;19983;-70
2021/04/01 01:45:38;;;;;;;;;;;;;;;8.11;83.84;96083.41;1035127;28;19918;-69
2021/04/01 01:46:08;;;;;;;;;;;;;;;8.09;84.09;96083.66;1031423;28;19913;-70
2021/04/01 01:46:39;;;;;;;;;;;;;;;8.10;83.88;96081.81;1030445;28;20004;-70
2021/04/01 01:47:09;;;;;;;;;;;;;;;8.10;83.95;96080.00;1035000;28;19921;-69
2021/04/01 01:47:39;;;;;;;;;;;;;;;8.09;83.81;96080.25;1034090;28;19909;-70
2021/04/01 01:48:10;;;;;;;;;;;;;;;8.03;84.09;96076.75;1036816;28;19917;-70
2021/04/01 01:48:40;;;;;;;;;;;;;;;8.06;83.99;96081.50;1043181;28;19916;-70
2021/04/01 01:49:10;;;;;;;;;;;;;;;8.09;84.19;96083.66;1035077;28;20361;-70
2021/04/01 01:49:41;;;;;;;;;;;;;;;8.09;83.93;96081.03;1034749;28;19909;-70
2021/04/01 01:50:11;;;;;;;;;;;;;;;8.09;84.23;96081.03;1031637;28;19913;-70
2021/04/01 01:50:42;;;;;;;;;;;;;;;8.08;84.27;96076.84;1031277;28;19979;-70
2021/04/01 01:51:12;;;;;;;;;;;;;;;8.05;83.90;96082.53;1035049;28;19924;-70
2021/04/01 01:51:42;;;;;;;;;;;;;;;8.03;84.31;96077.53;1038756;28;20405;-70
2021/04/01 01:52:13;;;;;;;;;;;;;;;7.99;84.63;96078.25;1039775;28;19920;-70
2021/04/01 01:52:43;;;;;;;;;;;;;;;7.96;84.41;96074.28;1035675;28;19918;-70
2021/04/01 01:53:13;;;;;;;;;;;;;;;8.00;84.48;96074.63;1030705;28;20330;-69
2021/04/01 01:53:44;;;;;;;;;;;;;;;7.95;84.33;96079.78;1031213;28;19949;-70
2021/04/01 01:54:14;;;;;;;;;;;;;;;7.96;84.60;96078.75;1027630;28;19926;-70
2021/04/01 01:54:44;;;;;;;;;;;;;;;8.03;84.37;96079.38;1034975;28;19917;-69
2021/04/01 01:55:15;;;;;;;;;;;;;;;8.05;84.20;96077.31;1039241;28;20341;-70
2021/04/01 01:55:45;;;;;;;;;;;;;;;8.03;84.04;96074.94;1035692;28;20463;-70
2021/04/01 01:56:25;;;;;;;;;;;;;;;8.02;84.40;96073.34;1043460;28;19916;-70
2021/04/01 01:56:55;;;;;;;;;;;;;;;8.05;84.10;96072.09;1031357;28;19920;-70
2021/04/01 01:57:26;;;;;;;;;;;;;;;8.10;84.01;96074.78;1027000;28;19921;-69
2021/04/01 01:57:56;;;;;;;;;;;;;;;8.08;84.12;96076.84;1021899;29;19969;-70
2021/04/01 01:58:26;;;;;;;;;;;;;;;8.06;83.88;96073.66;1022725;28;19918;-69
2021/04/01 01:58:57;;;;;;;;;;;;;;;8.05;84.38;96072.09;1031136;28;19913;-70
2021/04/01 01:59:29;;;;;;;;;;;;;;;8.02;84.18;96072.56;1035022;28;19920;-69
2021/04/01 01:59:59;;;;;;;;;;;;;;;8.00;84.24;96074.63;1039028;28;19917;-69
2021/04/01 02:00:34;;;;;;;;;;;;;;;7.97;84.15;96072.47;1039353;28;19964;-69
2021/04/01 02:01:06;;;;;;;;;;;;;;;7.95;84.89;96074.53;1036219;28;19913;-70
2021/04/01 02:01:36;;;;;;;;;;;;;;;7.97;84.62;96075.09;1035326;28;19921;-70
2021/04/01 02:02:06;;;;;;;;;;;;;;;8.03;84.32;96074.13;1034454;28;19913;-70
2021/04/01 02:02:37;;;;;;;;;;;;;;;8.04;84.13;96070.50;1031655;28;20055;-70
2021/04/01 02:03:07;;;;;;;;;;;;;;;7.98;84.43;96072.25;1031185;28;19972;-70
2021/04/01 02:03:37;;;;;;;;;;;;;;;7.96;84.42;96071.69;1034891;28;19921;-69
2021/04/01 02:04:08;;;;;;;;;;;;;;;7.90;84.62;96071.84;1035120;28;19917;-70
2021/04/01 02:04:38;;;;;;;;;;;;;;;7.89;85.12;96075.50;1027086;28;20336;-70
2021/04/01 02:05:09;;;;;;;;;;;;;;;7.86;85.32;96068.13;1031181;28;19921;-70
2021/04/01 02:05:39;;;;;;;;;;;;;;;7.85;nan;96071.78;1031077;28;20430;-69
2021/04/01 02:06:10;;;;;;;;;;;;;;;7.82;85.57;96072.25;1035191;28;20466;-69
2021/04/01 02:06:41;;;;;;;;;;;;;;;7.77;85.46;96076.34;1039657;28;19907;-69
2021/04/01 02:07:11;;;;;;;;;;;;;;;7.76;85.61;96072.16;1039325;28;19920;-69
2021/04/01 02:07:41;;;;;;;;;;;;;;;7.74;85.81;96081.25;1039216;28;19916;-69
2021/04/01 02:08:12;;;;;;;;;;;;;;;7.59;85.72;96050.44;1031490;28;20376;-67
2021/04/01 02:08:42;;;;;;;;;;;;;;;7.75;85.71;96073.19;1033647;28;19963;-69
2021/04/01 02:09:12;;;;;;;;;;;;;;;7.75;85.85;96072.41;1035750;28;19920;-69
2021/04/01 02:09:48;;;;;;;;;;;;;;;7.75;85.93;96072.41;1031211;28;20454;-69
2021/04/01 02:10:19;;;;;;;;;;;;;;;7.75;85.75;96072.41;1035251;28;19913;-69
2021/04/01 02:10:50;;;;;;;;;;;;;;;7.80;85.75;96070.63;1035716;28;20080;-69
2021/04/01 02:11:20;;;;;;;;;;;;;;;7.80;85.77;96075.88;1035228;28;19913;-69
2021/04/01 02:11:51;;;;;;;;;;;;;;;7.77;85.88;96073.72;1038248;28;20318;-67
2021/04/01 02:12:21;;;;;;;;;;;;;;;7.78;85.69;96072.72;1036658;28;20402;-68
2021/04/01 02:12:54;;;;;;;;;;;;;;;7.75;85.96;96067.97;1033512;28;19945;-69
2021/04/01 02:13:25;;;;;;;;;;;;;;;7.75;85.89;96070.56;1035151;28;20305;-68
2021/04/01 02:13:55;;;;;;;;;;;;;;;7.72;85.99;96068.44;1030902;28;19914;-68
2021/04/01 02:14:26;;;;;;;;;;;;;;;7.70;86.44;96067.06;1027274;28;19942;-69
2021/04/01 02:14:56;;;;;;;;;;;;;;;7.75;86.09;96067.97;1036496;28;19964;-69
2021/04/01 02:15:30;;;;;;;;;;;;;;;7.72;85.86;96071.03;1034869;28;20003;-69
2021/04/01 02:16:00;;;;;;;;;;;;;;;7.70;86.01;96070.47;1036092;28;19972;-69
2021/04/01 02:16:31;;;;;;;;;;;;;;;7.74;86.05;96066.34;1035104;28;19932;-68
2021/04/01 02:17:01;;;;;;;;;;;;;;;7.71;86.06;96069.47;1035446;28;20597;-69
2021/04/01 02:17:31;;;;;;;;;;;;;;;7.67;85.96;96070.94;1035583;28;19909;-67
2021/04/01 02:18:02;;;;;;;;;;;;;;;7.67;86.28;96064.94;1035559;28;20441;-69
2021/04/01 02:18:33;;;;;;;;;;;;;;;7.66;86.25;96064.13;1033943;28;19920;-69
2021/04/01 02:19:03;;;;;;;;;;;;;;;7.66;86.54;96066.75;1027386;28;19917;-69
2021/04/01 02:19:33;;;;;;;;;;;;;;;7.66;86.46;96071.97;1027149;28;19945;-69
2021/04/01 02:20:04;;;;;;;;;;;;;;;7.66;86.50;96068.56;1027178;28;19996;-68
2021/04/01 02:20:40;;;;;;;;;;;;;;;7.61;86.68;96066.66;1035165;28;19934;-69
2021/04/01 02:21:13;;;;;;;;;;;;;;;7.59;86.65;96067.94;1040145;28;20003;-69
2021/04/01 02:21:43;;;;;;;;;;;;;;;7.59;86.69;96062.72;1035235;28;19909;-69
2021/04/01 02:22:14;;;;;;;;;;;;;;;7.63;86.62;96069.84;1030984;28;19996;-70
2021/04/01 02:22:44;;;;;;;;;;;;;;;7.62;86.69;96057.81;1035074;28;19952;-70
2021/04/01 02:23:15;;;;;;;;;;;;;;;7.63;86.68;96067.22;1031339;28;19910;-70
2021/04/01 02:23:45;;;;;;;;;;;;;;;7.62;86.77;96070.09;1037833;28;19913;-70
2021/04/01 02:24:16;;;;;;;;;;;;;;;7.61;86.81;96063.25;1031382;28;20387;-69
2021/04/01 02:24:46;;;;;;;;;;;;;;;7.62;86.44;96070.88;1025056;28;19932;-70
2021/04/01 02:25:16;;;;;;;;;;;;;;;7.59;86.87;96066.09;1034740;28;19909;-69
2021/04/01 02:25:47;;;;;;;;;;;;;;;7.60;86.66;96067.69;1035283;28;19909;-69
2021/04/01 02:26:17;;;;;;;;;;;;;;;7.58;86.79;96061.94;1039239;28;19913;-69
2021/04/01 02:26:48;;;;;;;;;;;;;;;7.57;86.72;96060.31;1042664;28;19923;-68
2021/04/01 02:27:18;;;;;;;;;;;;;;;7.55;86.74;96063.19;1037141;28;19925;-70
2021/04/01 02:27:48;;;;;;;;;;;;;;;7.58;86.68;96059.31;1030993;28;20403;-70
2021/04/01 02:28:19;;;;;;;;;;;;;;;7.54;87.08;96061.59;1034933;28;19914;-69
2021/04/01 02:28:50;;;;;;;;;;;;;;;7.51;87.32;96061.25;1026471;28;20008;-69
2021/04/01 02:29:20;;;;;;;;;;;;;;;7.49;87.15;96058.88;1031187;28;19933;-69
2021/04/01 02:29:50;;;;;;;;;;;;;;;7.50;87.29;96070.13;1035511;28;19918;-69
2021/04/01 02:30:24;;;;;;;;;;;;;;;7.43;87.30;96059.81;1034986;28;19921;-70
2021/04/01 02:30:56;;;;;;;;;;;;;;;7.43;87.57;96065.03;1039277;28;19917;-70
2021/04/01 02:31:26;;;;;;;;;;;;;;;7.44;87.62;96060.59;1039386;28;19920;-70
2021/04/01 02:31:57;;;;;;;;;;;;;;;7.48;87.29;96067.75;1039053;28;19924;-70
2021/04/01 02:32:27;;;;;;;;;;;;;;;7.53;87.33;96061.81;1035318;28;19955;-69
2021/04/01 02:32:57;;;;;;;;;;;;;;;7.52;87.37;96068.09;1030868;28;19913;-70
2021/04/01 02:33:29;;;;;;;;;;;;;;;7.56;86.97;96059.53;1035384;28;19941;-70
2021/04/01 02:33:59;;;;;;;;;;;;;;;7.52;87.37;96061.03;1031680;28;19996;-69
2021/04/01 02:34:29;;;;;;;;;;;;;;;7.54;87.14;96056.38;1027507;28;19914;-69
2021/04/01 02:34:59;;;;;;;;;;;;;;;7.53;87.18;96059.22;1031150;28;20379;-70
2021/04/01 02:35:30;;;;;;;;;;;;;;;7.51;87.54;96062.06;1027024;28;19917;-70
2021/04/01 02:36:01;;;;;;;;;;;;;;;7.49;87.57;96065.94;1031141;28;19917;-70
2021/04/01 02:36:31;;;;;;;;;;;;;;;7.52;87.35;96063.66;1035547;28;19980;-70
2021/04/01 02:37:02;;;;;;;;;;;;;;;7.50;87.14;96064.91;1034856;28;20011;-69
2021/04/01 02:37:32;;;;;;;;;;;;;;;7.52;87.25;96063.66;1035077;28;19921;-70
2021/04/01 02:38:02;;;;;;;;;;;;;;;7.57;87.08;96065.53;1031292;28;20517;-70
2021/04/01 02:38:33;;;;;;;;;;;;;;;7.56;86.79;96062.16;1026345;28;19914;-70
2021/04/01 02:39:03;;;;;;;;;;;;;;;7.53;87.01;96064.44;1026816;28;19913;-69
2021/04/01 02:39:33;;;;;;;;;;;;;;;7.49;87.18;96053.66;1028968;28;19980;-69
2021/04/01 02:40:04;;;;;;;;;;;;;;;7.44;87.19;96061.41;1031046;28;19929;-69
2021/04/01 02:40:35;;;;;;;;;;;;;;;7.43;87.61;96061.66;1039457;28;20002;-69
2021/04/01 02:41:05;;;;;;;;;;;;;;;7.45;87.71;96057.00;1034936;28;19913;-69
2021/04/01 02:41:35;;;;;;;;;;;;;;;7.50;87.20;96059.69;1030177;28;19918;-70
2021/04/01 02:42:06;;;;;;;;;;;;;;;7.45;87.36;96057.00;1031312;28;19917;-70
2021/04/01 02:42:36;;;;;;;;;;;;;;;7.56;87.06;96063.97;1030653;28;20602;-69